createdAt,value
2019-05-17T00:00:52.256Z,18.2
2019-05-17T00:01:59.349Z,18.2
2019-05-17T00:03:01.767Z,18.4
2019-05-17T00:04:04.186Z,18.3
2019-05-17T00:05:10.125Z,18.2
2019-05-17T00:06:12.557Z,18.3
2019-05-17T00:07:17.215Z,18.3
2019-05-17T00:09:26.591Z,18.3
2019-05-17T00:10:28.563Z,18.3
2019-05-17T00:11:30.732Z,18.4
2019-05-17T00:12:33.169Z,18.3
2019-05-17T00:13:39.595Z,18.3
2019-05-17T00:14:42.018Z,18.4
2019-05-17T00:15:44.455Z,18.4
2019-05-17T00:16:50.091Z,18.3
2019-05-17T00:17:52.511Z,18.3
2019-05-17T00:18:56.664Z,18.4
2019-05-17T00:19:59.871Z,18.3
2019-05-17T00:21:01.743Z,18.3
2019-05-17T00:22:04.173Z,18.3
2019-05-17T00:23:10.323Z,18.4
2019-05-17T00:24:12.451Z,18.3
2019-05-17T00:25:17.107Z,18.3
2019-05-17T00:26:19.552Z,18.4
2019-05-17T00:27:21.681Z,18.4
2019-05-17T00:28:23.553Z,18.4
2019-05-17T00:29:29.987Z,18.4
2019-05-17T00:30:32.135Z,18.3
2019-05-17T00:31:33.733Z,18.5
2019-05-17T00:32:38.395Z,18.3
2019-05-17T00:33:40.540Z,18.4
2019-05-17T00:34:42.692Z,18.4
2019-05-17T00:35:47.996Z,18.4
2019-05-17T00:36:50.425Z,18.3
2019-05-17T00:37:52.761Z,18.4
2019-05-17T00:39:59.921Z,18.4
2019-05-17T00:41:02.345Z,18.5
2019-05-17T00:43:09.496Z,18.4
2019-05-17T00:44:11.657Z,18.4
2019-05-17T00:45:14.101Z,18.4
2019-05-17T00:46:20.526Z,18.5
2019-05-17T00:47:22.947Z,18.4
2019-05-17T00:48:29.577Z,18.4
2019-05-17T00:49:31.742Z,18.5
2019-05-17T00:50:34.169Z,18.5
2019-05-17T00:51:40.117Z,18.4
2019-05-17T00:52:42.255Z,18.5
2019-05-17T00:53:46.466Z,18.4
2019-05-17T00:54:49.196Z,18.5
2019-05-17T00:55:51.633Z,18.5
2019-05-17T00:56:56.524Z,18.4
2019-05-17T00:57:59.676Z,18.4
2019-05-17T00:59:02.109Z,18.5
2019-05-17T01:00:04.535Z,18.4
2019-05-17T01:01:08.892Z,18.4
2019-05-17T01:02:11.331Z,18.5
2019-05-17T01:03:13.495Z,18.5
2019-05-17T01:04:19.441Z,18.4
2019-05-17T01:05:21.863Z,18.4
2019-05-17T01:06:24.013Z,18.5
2019-05-17T01:07:30.437Z,18.5
2019-05-17T01:08:32.852Z,18.5
2019-05-17T01:09:37.198Z,18.5
2019-05-17T01:10:39.646Z,18.4
2019-05-17T01:11:41.783Z,18.6
2019-05-17T01:12:44.218Z,18.5
2019-05-17T01:13:51.125Z,18.5
2019-05-17T01:14:53.272Z,18.4
2019-05-17T01:15:57.143Z,18.5
2019-05-17T01:16:59.576Z,18.5
2019-05-17T01:18:02.001Z,18.5
2019-05-17T01:19:04.149Z,18.5
2019-05-17T01:20:08.733Z,18.5
2019-05-17T01:21:10.884Z,18.4
2019-05-17T01:22:13.322Z,18.5
2019-05-17T01:23:19.973Z,18.5
2019-05-17T01:24:22.393Z,18.5
2019-05-17T01:25:27.135Z,18.5
2019-05-17T01:26:30.289Z,18.5
2019-05-17T01:27:32.711Z,18.4
2019-05-17T01:28:36.918Z,18.5
2019-05-17T01:29:39.345Z,18.4
2019-05-17T01:30:41.785Z,18.6
2019-05-17T01:31:46.332Z,18.5
2019-05-17T01:32:49.398Z,18.6
2019-05-17T01:33:51.263Z,18.5
2019-05-17T01:34:53.144Z,18.5
2019-05-17T01:35:59.295Z,18.6
2019-05-17T01:37:01.695Z,18.5
2019-05-17T01:38:04.147Z,18.5
2019-05-17T01:40:17.308Z,18.5
2019-05-17T01:41:20.537Z,18.5
2019-05-17T01:42:22.962Z,18.6
2019-05-17T01:43:29.594Z,18.6
2019-05-17T01:44:31.733Z,18.5
2019-05-17T01:45:36.385Z,18.5
2019-05-17T01:46:39.482Z,18.5
2019-05-17T01:47:41.947Z,18.6
2019-05-17T01:48:44.115Z,18.6
2019-05-17T01:49:50.057Z,18.4
2019-05-17T01:50:52.203Z,18.6
2019-05-17T01:51:54.081Z,18.6
2019-05-17T01:52:59.744Z,18.6
2019-05-17T01:54:01.335Z,18.5
2019-05-17T01:55:03.197Z,18.5
2019-05-17T01:56:07.589Z,18.6
2019-05-17T01:57:10.014Z,18.6
2019-05-17T01:58:11.908Z,18.6
2019-05-17T01:59:14.327Z,18.5
2019-05-17T02:00:20.273Z,18.6
2019-05-17T02:01:22.704Z,18.6
2019-05-17T02:03:30.115Z,18.5
2019-05-17T02:04:32.546Z,18.5
2019-05-17T02:06:39.983Z,18.6
2019-05-17T02:07:41.895Z,18.6
2019-05-17T02:08:44.327Z,18.6
2019-05-17T02:09:50.273Z,18.6
2019-05-17T02:10:52.413Z,18.5
2019-05-17T02:11:54.563Z,18.5
2019-05-17T02:12:59.075Z,18.5
2019-05-17T02:14:00.946Z,18.6
2019-05-17T02:15:03.149Z,18.5
2019-05-17T02:16:10.055Z,18.6
2019-05-17T02:17:12.493Z,18.6
2019-05-17T02:18:14.643Z,18.6
2019-05-17T02:19:19.270Z,18.6
2019-05-17T02:20:21.684Z,18.7
2019-05-17T02:21:24.119Z,18.6
2019-05-17T02:22:30.547Z,18.5
2019-05-17T02:23:32.705Z,18.7
2019-05-17T02:25:40.129Z,18.7
2019-05-17T02:26:42.553Z,18.5
2019-05-17T02:27:49.455Z,18.6
2019-05-17T02:28:55.394Z,18.5
2019-05-17T02:29:57.253Z,18.5
2019-05-17T02:30:59.410Z,18.7
2019-05-17T02:32:05.356Z,18.6
2019-05-17T02:33:07.819Z,18.6
2019-05-17T02:34:14.609Z,18.6
2019-05-17T02:35:17.025Z,18.5
2019-05-17T02:36:22.593Z,18.6
2019-05-17T02:37:24.915Z,18.6
2019-05-17T02:38:27.345Z,18.6
2019-05-17T02:40:34.972Z,18.6
2019-05-17T02:41:37.393Z,18.6
2019-05-17T02:43:44.547Z,18.6
2019-05-17T02:44:46.982Z,18.7
2019-05-17T02:45:52.458Z,18.6
2019-05-17T02:46:54.880Z,18.7
2019-05-17T02:47:57.325Z,18.5
2019-05-17T02:49:02.761Z,18.6
2019-05-17T02:50:06.302Z,18.6
2019-05-17T02:51:08.734Z,18.5
2019-05-17T02:52:14.883Z,18.5
2019-05-17T02:53:17.329Z,18.7
2019-05-17T02:54:19.777Z,18.7
2019-05-17T02:55:25.727Z,18.6
2019-05-17T02:56:28.153Z,18.6
2019-05-17T02:57:35.376Z,18.7
2019-05-17T02:58:37.798Z,18.6
2019-05-17T02:59:43.133Z,18.7
2019-05-17T03:00:45.410Z,18.6
2019-05-17T03:01:47.548Z,18.6
2019-05-17T03:02:53.355Z,18.7
2019-05-17T03:03:55.426Z,18.5
2019-05-17T03:04:57.858Z,18.6
2019-05-17T03:07:05.026Z,18.6
2019-05-17T03:08:07.447Z,18.6
2019-05-17T03:12:24.825Z,18.6
2019-05-17T03:13:27.248Z,18.6
2019-05-17T03:15:34.652Z,18.4
2019-05-17T03:16:36.813Z,18.4
2019-05-17T03:17:42.423Z,18.4
2019-05-17T03:18:44.703Z,18.4
2019-05-17T03:19:47.142Z,18.5
2019-05-17T03:21:54.557Z,18.4
2019-05-17T03:22:56.994Z,18.4
2019-05-17T03:24:02.855Z,18.4
2019-05-17T03:25:04.938Z,18.4
2019-05-17T03:26:07.105Z,18.3
2019-05-17T03:27:08.704Z,18.3
2019-05-17T03:28:14.856Z,18.4
2019-05-17T03:29:17.013Z,18.4
2019-05-17T03:32:35.364Z,18.3
2019-05-17T03:33:37.175Z,18.3
2019-05-17T03:34:44.475Z,18.2
2019-05-17T03:35:46.697Z,18.3
2019-05-17T03:36:49.189Z,18.2
2019-05-17T03:37:55.064Z,18.2
2019-05-17T03:38:57.513Z,18.2
2019-05-17T03:42:12.946Z,18.2
2019-05-17T03:43:15.379Z,18.2
2019-05-17T03:44:17.533Z,18.2
2019-05-17T03:46:24.947Z,18.1
2019-05-17T03:47:26.846Z,18.1
2019-05-17T03:48:29.269Z,18.1
2019-05-17T03:50:39.927Z,18.2
2019-05-17T03:51:46.094Z,18.1
2019-05-17T03:52:48.516Z,18.1
2019-05-17T03:53:55.415Z,18.1
2019-05-17T03:54:57.549Z,18.1
2019-05-17T03:57:04.700Z,18.1
2019-05-17T03:58:07.134Z,18.1
2019-05-17T03:59:12.598Z,18.1
2019-05-17T04:00:15.072Z,18.2
2019-05-17T04:01:17.233Z,18.1
2019-05-17T04:02:22.809Z,18.1
2019-05-17T04:03:25.120Z,18.1
2019-05-17T04:04:27.554Z,18
2019-05-17T04:05:33.059Z,18
2019-05-17T04:06:35.168Z,18.1
2019-05-17T04:07:37.600Z,18.1
2019-05-17T04:09:45.015Z,18.1
2019-05-17T04:10:47.663Z,18.1
2019-05-17T04:11:49.796Z,18.1
2019-05-17T04:12:57.801Z,18.1
2019-05-17T04:15:04.958Z,18
2019-05-17T04:17:13.788Z,18.1
2019-05-17T04:18:16.237Z,18
2019-05-17T04:19:18.412Z,18.1
2019-05-17T04:20:24.558Z,18.1
2019-05-17T04:21:26.699Z,18
2019-05-17T04:22:28.583Z,18
2019-05-17T04:23:35.005Z,18
2019-05-17T04:24:37.151Z,18
2019-05-17T04:25:39.585Z,18
2019-05-17T04:26:45.534Z,18
2019-05-17T04:27:47.696Z,18
2019-05-17T04:29:55.113Z,18
2019-05-17T04:30:57.259Z,18
2019-05-17T04:31:59.683Z,18
2019-05-17T04:33:05.357Z,18
2019-05-17T04:34:07.787Z,18.1
2019-05-17T04:36:15.397Z,18.1
2019-05-17T04:37:18.015Z,18
2019-05-17T04:38:24.917Z,18
2019-05-17T04:39:27.347Z,18
2019-05-17T04:40:29.508Z,18
2019-05-17T04:43:45.615Z,18
2019-05-17T04:44:48.436Z,18
2019-05-17T04:45:54.582Z,18
2019-05-17T04:46:56.727Z,17.9
2019-05-17T04:47:59.042Z,18
2019-05-17T04:49:05.681Z,18
2019-05-17T04:50:07.557Z,17.9
2019-05-17T04:52:14.983Z,18
2019-05-17T04:53:17.407Z,18
2019-05-17T04:55:24.555Z,18
2019-05-17T04:56:26.709Z,17.9
2019-05-17T04:57:28.858Z,18
2019-05-17T04:58:34.809Z,18
2019-05-17T04:59:36.683Z,18
2019-05-17T05:00:38.868Z,18
2019-05-17T05:01:44.548Z,18
2019-05-17T05:02:46.978Z,18
2019-05-17T05:03:52.256Z,17.9
2019-05-17T05:04:54.637Z,18
2019-05-17T05:05:57.086Z,17.9
2019-05-17T05:06:59.533Z,18
2019-05-17T05:08:05.484Z,18
2019-05-17T05:09:07.786Z,17.9
2019-05-17T05:10:15.015Z,18
2019-05-17T05:11:17.455Z,17.9
2019-05-17T05:12:22.627Z,18
2019-05-17T05:13:25.360Z,18
2019-05-17T05:14:27.783Z,18
2019-05-17T05:16:35.181Z,17.9
2019-05-17T05:17:37.615Z,17.9
2019-05-17T05:19:44.754Z,18
2019-05-17T05:20:46.922Z,17.9
2019-05-17T05:22:53.768Z,17.9
2019-05-17T05:23:55.922Z,17.9
2019-05-17T05:24:58.089Z,17.9
2019-05-17T05:26:04.996Z,18
2019-05-17T05:27:06.889Z,17.9
2019-05-17T05:28:11.331Z,17.9
2019-05-17T05:29:13.629Z,17.8
2019-05-17T05:30:16.054Z,17.9
2019-05-17T05:31:18.477Z,17.9
2019-05-17T05:32:22.595Z,18
2019-05-17T05:33:25.025Z,18
2019-05-17T05:34:27.190Z,17.9
2019-05-17T05:35:31.660Z,17.9
2019-05-17T05:36:33.945Z,17.9
2019-05-17T05:37:36.587Z,17.9
2019-05-17T05:38:38.739Z,17.9
2019-05-17T05:39:43.186Z,17.9
2019-05-17T05:40:45.345Z,17.9
2019-05-17T05:41:47.509Z,17.9
2019-05-17T05:42:52.025Z,17.9
2019-05-17T05:43:54.641Z,18
2019-05-17T05:44:56.513Z,18
2019-05-17T05:45:58.684Z,17.9
2019-05-17T05:47:05.585Z,18
2019-05-17T05:48:07.794Z,17.9
2019-05-17T05:49:09.507Z,18
2019-05-17T05:51:21.938Z,17.9
2019-05-17T05:52:24.138Z,17.9
2019-05-17T05:53:26.320Z,17.9
2019-05-17T05:54:28.753Z,18
2019-05-17T05:55:34.917Z,17.9
2019-05-17T05:56:36.519Z,17.9
2019-05-17T05:57:38.947Z,17.8
2019-05-17T05:58:44.615Z,17.9
2019-05-17T05:59:46.476Z,17.8
2019-05-17T06:00:48.903Z,17.9
2019-05-17T06:01:55.817Z,17.9
2019-05-17T06:02:57.980Z,17.9
2019-05-17T06:04:02.503Z,17.9
2019-05-17T06:05:05.095Z,17.9
2019-05-17T06:06:07.516Z,17.9
2019-05-17T06:07:09.679Z,17.9
2019-05-17T06:08:15.815Z,17.9
2019-05-17T06:09:17.712Z,17.9
2019-05-17T06:10:21.761Z,17.9
2019-05-17T06:11:24.238Z,17.9
2019-05-17T06:13:33.140Z,17.8
2019-05-17T06:14:35.023Z,17.9
2019-05-17T06:15:37.186Z,17.8
2019-05-17T06:16:39.626Z,18
2019-05-17T06:17:46.172Z,17.9
2019-05-17T06:18:48.927Z,17.8
2019-05-17T06:19:53.295Z,17.8
2019-05-17T06:20:55.741Z,17.9
2019-05-17T06:21:58.373Z,17.9
2019-05-17T06:23:02.990Z,17.8
2019-05-17T06:24:05.421Z,17.9
2019-05-17T06:25:07.581Z,17.9
2019-05-17T06:27:14.995Z,17.8
2019-05-17T06:28:17.430Z,17.9
2019-05-17T06:29:19.326Z,17.9
2019-05-17T06:30:25.294Z,17.9
2019-05-17T06:31:27.463Z,18
2019-05-17T06:33:35.295Z,17.8
2019-05-17T06:34:37.754Z,17.8
2019-05-17T06:36:45.184Z,17.9
2019-05-17T06:37:47.086Z,17.9
2019-05-17T06:38:49.245Z,17.8
2019-05-17T06:39:55.667Z,17.8
2019-05-17T06:40:58.094Z,17.9
2019-05-17T06:42:04.517Z,18
2019-05-17T06:43:06.384Z,18
2019-05-17T06:44:08.557Z,17.8
2019-05-17T06:45:14.983Z,17.8
2019-05-17T06:46:17.109Z,17.9
2019-05-17T06:47:19.458Z,17.9
2019-05-17T06:48:25.614Z,17.8
2019-05-17T06:49:27.747Z,17.8
2019-05-17T06:50:29.893Z,17.9
2019-05-17T06:51:35.558Z,17.9
2019-05-17T06:52:37.989Z,17.8
2019-05-17T06:53:40.187Z,17.8
2019-05-17T06:54:46.607Z,17.8
2019-05-17T06:55:49.099Z,17.8
2019-05-17T06:56:53.123Z,17.8
2019-05-17T06:57:55.071Z,17.9
2019-05-17T06:58:57.503Z,17.9
2019-05-17T07:01:04.946Z,17.8
2019-05-17T07:02:07.074Z,17.9
2019-05-17T07:03:13.509Z,17.9
2019-05-17T07:04:15.936Z,17.9
2019-05-17T07:05:22.363Z,17.9
2019-05-17T07:06:24.525Z,17.9
2019-05-17T07:07:26.695Z,17.9
2019-05-17T07:08:33.157Z,17.9
2019-05-17T07:09:36.622Z,17.9
2019-05-17T07:10:43.049Z,17.8
2019-05-17T07:11:45.199Z,17.8
2019-05-17T07:13:52.614Z,17.8
2019-05-17T07:14:54.746Z,17.9
2019-05-17T07:16:00.693Z,17.8
2019-05-17T07:17:03.145Z,17.9
2019-05-17T07:18:05.042Z,17.8
2019-05-17T07:19:07.466Z,17.8
2019-05-17T07:20:13.133Z,17.9
2019-05-17T07:21:15.298Z,17.8
2019-05-17T07:22:17.748Z,17.8
2019-05-17T07:23:24.175Z,17.8
2019-05-17T07:24:26.616Z,17.8
2019-05-17T07:25:33.041Z,17.8
2019-05-17T07:26:35.182Z,17.9
2019-05-17T07:28:42.074Z,17.8
2019-05-17T07:29:44.521Z,17.9
2019-05-17T07:30:46.420Z,17.8
2019-05-17T07:31:53.321Z,17.9
2019-05-17T07:32:55.488Z,17.8
2019-05-17T07:33:59.691Z,17.9
2019-05-17T07:35:02.360Z,17.9
2019-05-17T07:36:04.794Z,17.8
2019-05-17T07:37:07.215Z,17.9
2019-05-17T07:38:13.156Z,17.9
2019-05-17T07:39:15.060Z,17.9
2019-05-17T07:40:19.680Z,17.8
2019-05-17T07:41:22.668Z,17.9
2019-05-17T07:42:24.832Z,17.9
2019-05-17T07:43:29.615Z,17.8
2019-05-17T07:44:32.715Z,17.8
2019-05-17T07:45:35.490Z,17.9
2019-05-17T07:46:39.965Z,17.9
2019-05-17T07:47:42.546Z,17.9
2019-05-17T07:48:44.717Z,17.8
2019-05-17T07:49:49.347Z,17.9
2019-05-17T07:50:52.611Z,17.8
2019-05-17T07:51:55.043Z,17.9
2019-05-17T07:52:57.471Z,17.9
2019-05-17T07:54:02.066Z,17.9
2019-05-17T07:55:04.514Z,17.8
2019-05-17T07:56:06.701Z,17.9
2019-05-17T07:57:13.317Z,17.8
2019-05-17T07:58:15.764Z,17.8
2019-05-17T08:00:22.934Z,17.8
2019-05-17T08:01:25.142Z,17.9
2019-05-17T08:02:27.590Z,17.9
2019-05-17T08:03:33.536Z,17.8
2019-05-17T08:04:35.988Z,17.8
2019-05-17T08:06:43.422Z,17.8
2019-05-17T08:07:45.849Z,17.8
2019-05-17T08:09:53.285Z,17.9
2019-05-17T08:10:55.414Z,17.9
2019-05-17T08:13:02.843Z,17.9
2019-05-17T08:14:05.282Z,17.8
2019-05-17T08:15:07.724Z,17.8
2019-05-17T08:16:13.664Z,17.8
2019-05-17T08:17:15.826Z,17.9
2019-05-17T08:18:22.734Z,17.8
2019-05-17T08:19:25.167Z,17.9
2019-05-17T08:20:29.820Z,17.9
2019-05-17T08:21:32.062Z,17.8
2019-05-17T08:22:34.485Z,17.8
2019-05-17T08:23:36.638Z,17.8
2019-05-17T08:24:42.788Z,17.8
2019-05-17T08:26:50.507Z,17.8
2019-05-17T08:27:52.938Z,17.8
2019-05-17T08:28:55.384Z,17.8
2019-05-17T08:31:02.547Z,17.8
2019-05-17T08:32:04.965Z,17.9
2019-05-17T08:33:06.854Z,17.8
2019-05-17T08:34:13.285Z,17.7
2019-05-17T08:35:16.334Z,17.9
2019-05-17T08:36:22.777Z,17.8
2019-05-17T08:37:25.214Z,17.8
2019-05-17T08:38:27.644Z,17.9
2019-05-17T08:39:33.586Z,17.9
2019-05-17T08:40:36.011Z,17.8
2019-05-17T08:41:42.923Z,17.8
2019-05-17T08:42:45.074Z,17.8
2019-05-17T08:43:47.738Z,17.8
2019-05-17T08:44:53.622Z,17.8
2019-05-17T08:45:58.348Z,17.9
2019-05-17T08:47:00.966Z,17.8
2019-05-17T08:48:03.478Z,17.8
2019-05-17T08:49:05.918Z,17.8
2019-05-17T08:50:12.184Z,17.8
2019-05-17T08:51:14.208Z,17.8
2019-05-17T08:52:16.394Z,17.9
2019-05-17T08:53:20.956Z,17.8
2019-05-17T08:54:23.404Z,17.8
2019-05-17T08:55:25.559Z,17.9
2019-05-17T08:56:32.404Z,17.8
2019-05-17T08:57:34.288Z,17.8
2019-05-17T08:58:36.447Z,17.8
2019-05-17T08:59:43.352Z,17.7
2019-05-17T09:00:45.790Z,17.8
2019-05-17T09:02:53.212Z,17.8
2019-05-17T09:03:55.367Z,17.8
2019-05-17T09:05:00.250Z,17.8
2019-05-17T09:06:03.580Z,17.8
2019-05-17T09:07:06.053Z,17.8
2019-05-17T09:08:12.474Z,17.7
2019-05-17T09:09:14.645Z,17.8
2019-05-17T09:10:17.007Z,17.8
2019-05-17T09:11:23.411Z,17.8
2019-05-17T09:12:25.573Z,17.8
2019-05-17T09:13:30.246Z,17.8
2019-05-17T09:14:32.896Z,17.9
2019-05-17T09:15:35.055Z,17.8
2019-05-17T09:16:39.906Z,17.8
2019-05-17T09:17:42.949Z,17.9
2019-05-17T09:18:45.134Z,17.8
2019-05-17T09:19:47.292Z,17.8
2019-05-17T09:20:53.494Z,17.8
2019-05-17T09:21:56.003Z,17.8
2019-05-17T09:23:02.937Z,17.8
2019-05-17T09:24:05.379Z,17.9
2019-05-17T09:25:07.279Z,17.9
2019-05-17T09:26:13.231Z,17.8
2019-05-17T09:27:15.694Z,17.8
2019-05-17T09:28:22.596Z,17.8
2019-05-17T09:29:25.023Z,17.8
2019-05-17T09:30:26.903Z,17.8
2019-05-17T09:31:33.805Z,17.8
2019-05-17T09:32:36.235Z,17.8
2019-05-17T09:34:43.386Z,17.8
2019-05-17T09:35:45.549Z,17.8
2019-05-17T09:37:52.680Z,17.8
2019-05-17T09:38:55.124Z,17.8
2019-05-17T09:39:59.669Z,17.8
2019-05-17T09:41:03.015Z,17.8
2019-05-17T09:42:05.466Z,17.8
2019-05-17T09:46:22.844Z,17.8
2019-05-17T09:47:25.266Z,17.8
2019-05-17T09:48:30.361Z,17.8
2019-05-17T09:49:33.153Z,17.8
2019-05-17T09:50:35.594Z,17.8
2019-05-17T09:51:42.492Z,17.8
2019-05-17T09:52:44.641Z,17.8
2019-05-17T09:53:49.325Z,17.8
2019-05-17T09:54:52.266Z,17.7
2019-05-17T09:55:54.694Z,17.9
2019-05-17T09:56:57.133Z,17.8
2019-05-17T09:58:03.564Z,17.9
2019-05-17T09:59:06.006Z,17.8
2019-05-17T10:00:12.906Z,17.9
2019-05-17T10:01:15.354Z,17.9
2019-05-17T10:02:17.509Z,17.9
2019-05-17T10:03:24.647Z,17.8
2019-05-17T10:04:27.084Z,17.8
2019-05-17T10:05:31.803Z,17.8
2019-05-17T10:06:34.396Z,17.8
2019-05-17T10:07:36.542Z,17.8
2019-05-17T10:08:42.968Z,17.8
2019-05-17T10:09:45.393Z,17.8
2019-05-17T10:11:52.524Z,17.8
2019-05-17T10:12:54.943Z,17.8
2019-05-17T10:15:02.052Z,17.9
2019-05-17T10:16:03.951Z,17.8
2019-05-17T10:17:06.393Z,17.9
2019-05-17T10:18:12.816Z,17.8
2019-05-17T10:19:14.966Z,17.8
2019-05-17T10:20:17.106Z,17.8
2019-05-17T10:21:25.720Z,17.9
2019-05-17T10:23:33.493Z,17.7
2019-05-17T10:25:40.998Z,17.8
2019-05-17T10:26:43.423Z,17.9
2019-05-17T10:27:45.576Z,17.8
2019-05-17T10:28:47.448Z,17.9
2019-05-17T10:29:54.347Z,17.8
2019-05-17T10:30:56.504Z,17.8
2019-05-17T10:32:03.433Z,17.8
2019-05-17T10:33:05.876Z,17.8
2019-05-17T10:34:12.311Z,17.8
2019-05-17T10:35:14.457Z,17.9
2019-05-17T10:36:16.880Z,17.9
2019-05-17T10:37:22.544Z,17.8
2019-05-17T10:38:24.984Z,17.9
2019-05-17T10:39:29.437Z,17.8
2019-05-17T10:40:32.874Z,17.8
2019-05-17T10:41:35.316Z,17.8
2019-05-17T10:42:40.053Z,17.8
2019-05-17T10:43:42.198Z,17.8
2019-05-17T10:45:49.603Z,17.8
2019-05-17T10:46:51.730Z,17.8
2019-05-17T10:47:54.170Z,17.9
2019-05-17T10:48:55.774Z,17.9
2019-05-17T10:49:57.942Z,17.9
2019-05-17T10:51:00.984Z,17.9
2019-05-17T10:52:03.414Z,17.9
2019-05-17T10:53:05.574Z,17.8
2019-05-17T10:54:12.474Z,17.9
2019-05-17T10:55:14.902Z,17.9
2019-05-17T10:56:19.427Z,17.9
2019-05-17T10:57:22.510Z,17.8
2019-05-17T10:58:24.935Z,17.8
2019-05-17T10:59:27.378Z,17.8
2019-05-17T11:00:30.883Z,17.9
2019-05-17T11:01:33.034Z,17.8
2019-05-17T11:02:34.895Z,17.8
2019-05-17T11:03:39.568Z,17.9
2019-05-17T11:04:42.785Z,17.9
2019-05-17T11:05:45.218Z,17.8
2019-05-17T11:06:49.921Z,17.8
2019-05-17T11:07:53.122Z,17.8
2019-05-17T11:08:55.544Z,17.9
2019-05-17T11:10:02.520Z,17.9
2019-05-17T11:11:05.547Z,17.9
2019-05-17T11:12:13.006Z,17.8
2019-05-17T11:13:16.220Z,17.9
2019-05-17T11:14:18.745Z,17.9
2019-05-17T11:15:21.184Z,17.8
2019-05-17T11:16:23.605Z,17.8
2019-05-17T11:17:26.034Z,17.9
2019-05-17T11:18:28.468Z,17.9
2019-05-17T11:19:30.829Z,17.9
2019-05-17T11:20:32.994Z,17.9
2019-05-17T11:21:35.426Z,17.8
2019-05-17T11:22:37.856Z,17.8
2019-05-17T11:23:41.121Z,17.8
2019-05-17T11:24:44.536Z,17.9
2019-05-17T11:25:47.608Z,17.9
2019-05-17T11:26:49.767Z,17.8
2019-05-17T11:27:51.924Z,17.9
2019-05-17T11:28:54.464Z,17.9
2019-05-17T11:29:56.888Z,17.9
2019-05-17T11:30:59.321Z,17.8
2019-05-17T11:32:01.214Z,17.8
2019-05-17T11:33:03.653Z,17.9
2019-05-17T11:34:05.540Z,17.9
2019-05-17T11:35:08.027Z,17.9
2019-05-17T11:36:10.457Z,17.9
2019-05-17T11:37:12.655Z,17.8
2019-05-17T11:38:15.174Z,17.9
2019-05-17T11:39:17.349Z,17.9
2019-05-17T11:40:19.516Z,17.9
2019-05-17T11:41:22.593Z,17.9
2019-05-17T11:42:24.750Z,17.9
2019-05-17T11:43:27.172Z,17.9
2019-05-17T11:44:29.343Z,17.8
2019-05-17T11:45:33.358Z,18
2019-05-17T11:46:37.161Z,17.9
2019-05-17T11:47:39.580Z,17.8
2019-05-17T11:48:42.199Z,17.9
2019-05-17T11:49:44.350Z,17.9
2019-05-17T11:50:47.183Z,17.9
2019-05-17T11:51:49.612Z,17.9
2019-05-17T11:52:51.200Z,18
2019-05-17T11:53:53.622Z,17.9
2019-05-17T11:54:55.568Z,17.9
2019-05-17T11:55:57.993Z,17.9
2019-05-17T11:57:00.132Z,17.9
2019-05-17T11:58:02.582Z,17.8
2019-05-17T11:59:04.722Z,17.8
2019-05-17T12:00:07.154Z,17.8
2019-05-17T12:01:09.606Z,17.8
2019-05-17T12:02:11.781Z,17.8
2019-05-17T12:03:14.286Z,17.9
2019-05-17T12:04:16.712Z,17.9
2019-05-17T12:05:19.148Z,17.8
2019-05-17T12:06:21.657Z,17.9
2019-05-17T12:07:23.807Z,17.9
2019-05-17T12:08:26.234Z,17.9
2019-05-17T12:10:33.603Z,17.9
2019-05-17T12:11:35.958Z,17.9
2019-05-17T12:12:38.128Z,17.9
2019-05-17T12:14:45.530Z,17.9
2019-05-17T12:15:47.707Z,18
2019-05-17T12:16:50.138Z,17.9
2019-05-17T12:17:52.568Z,17.8
2019-05-17T12:18:54.423Z,17.9
2019-05-17T12:19:56.574Z,17.9
2019-05-17T12:20:58.775Z,17.9
2019-05-17T12:22:01.822Z,18
2019-05-17T12:23:04.445Z,17.9
2019-05-17T12:24:06.579Z,17.8
2019-05-17T12:25:08.738Z,17.9
2019-05-17T12:26:11.163Z,17.9
2019-05-17T12:27:13.588Z,17.9
2019-05-17T12:28:16.223Z,17.8
2019-05-17T12:29:18.369Z,17.9
2019-05-17T12:31:52.432Z,17.9
2019-05-17T12:32:55.526Z,17.9
2019-05-17T12:33:57.950Z,17.9
2019-05-17T12:34:59.815Z,17.9
2019-05-17T12:36:02.346Z,17.9
2019-05-17T12:37:04.817Z,17.9
2019-05-17T12:38:07.244Z,17.9
2019-05-17T12:39:09.374Z,17.9
2019-05-17T12:40:11.277Z,17.9
2019-05-17T12:41:13.905Z,18
2019-05-17T12:42:16.042Z,17.9
2019-05-17T12:43:18.486Z,17.9
2019-05-17T12:44:21.318Z,18
2019-05-17T12:45:23.856Z,18
2019-05-17T12:46:26.475Z,17.9
2019-05-17T12:47:28.897Z,17.9
2019-05-17T12:48:31.327Z,17.8
2019-05-17T12:49:33.474Z,17.9
2019-05-17T12:50:36.102Z,17.9
2019-05-17T12:51:38.524Z,17.9
2019-05-17T12:52:40.677Z,17.9
2019-05-17T12:53:42.838Z,17.9
2019-05-17T12:54:44.994Z,17.9
2019-05-17T12:55:47.443Z,17.9
2019-05-17T12:56:49.608Z,17.9
2019-05-17T12:57:52.040Z,17.8
2019-05-17T12:58:54.480Z,17.9
2019-05-17T12:59:57.251Z,17.9
2019-05-17T13:00:59.707Z,17.9
2019-05-17T13:02:01.856Z,17.9
2019-05-17T13:03:04.201Z,17.9
2019-05-17T13:04:06.660Z,17.9
2019-05-17T13:05:09.097Z,17.9
2019-05-17T13:06:10.980Z,18
2019-05-17T13:07:13.412Z,17.9
2019-05-17T13:08:15.561Z,17.9
2019-05-17T13:09:17.712Z,17.9
2019-05-17T13:10:20.142Z,17.9
2019-05-17T13:11:23.017Z,17.9
2019-05-17T13:12:25.429Z,17.9
2019-05-17T13:13:28.008Z,18
2019-05-17T13:14:30.439Z,17.9
2019-05-17T13:15:32.864Z,17.9
2019-05-17T13:16:35.894Z,17.9
2019-05-17T13:17:38.048Z,18
2019-05-17T13:18:40.212Z,17.9
2019-05-17T13:19:42.343Z,18
2019-05-17T13:20:44.790Z,17.9
2019-05-17T13:21:47.226Z,17.9
2019-05-17T13:22:49.649Z,17.8
2019-05-17T13:23:51.825Z,17.9
2019-05-17T13:24:54.834Z,17.9
2019-05-17T13:25:56.991Z,17.9
2019-05-17T13:26:59.430Z,17.9
2019-05-17T13:28:01.868Z,17.9
2019-05-17T13:29:05.202Z,17.9
2019-05-17T13:30:07.368Z,17.9
2019-05-17T13:31:09.586Z,17.9
2019-05-17T13:32:12.215Z,17.9
2019-05-17T13:33:14.354Z,18
2019-05-17T13:34:16.803Z,17.9
2019-05-17T13:35:18.954Z,17.9
2019-05-17T13:36:21.387Z,17.9
2019-05-17T13:37:23.558Z,17.9
2019-05-17T13:38:25.437Z,17.9
2019-05-17T13:39:27.876Z,17.9
2019-05-17T13:41:35.271Z,18
2019-05-17T13:42:37.820Z,17.9
2019-05-17T13:43:40.425Z,18
2019-05-17T13:44:43.156Z,17.9
2019-05-17T13:45:45.797Z,18
2019-05-17T13:46:49.064Z,18
2019-05-17T13:47:51.523Z,17.9
2019-05-17T13:48:53.703Z,18
2019-05-17T13:49:56.131Z,17.9
2019-05-17T13:50:58.558Z,18
2019-05-17T13:52:00.697Z,18
2019-05-17T13:53:03.327Z,17.9
2019-05-17T13:54:05.860Z,18
2019-05-17T13:55:08.449Z,18
2019-05-17T13:56:10.883Z,17.9
2019-05-17T13:57:13.316Z,17.9
2019-05-17T13:58:15.521Z,18
2019-05-17T13:59:17.385Z,17.8
2019-05-17T14:00:19.815Z,17.9
2019-05-17T14:01:22.017Z,17.9
2019-05-17T14:02:24.222Z,18
2019-05-17T14:03:26.658Z,18
2019-05-17T14:04:29.180Z,17.9
2019-05-17T14:05:31.355Z,17.9
2019-05-17T14:06:33.785Z,17.9
2019-05-17T14:07:36.214Z,17.9
2019-05-17T14:08:38.662Z,18
2019-05-17T14:09:40.841Z,17.9
2019-05-17T14:10:42.974Z,18
2019-05-17T14:11:46.239Z,18
2019-05-17T14:12:48.403Z,17.9
2019-05-17T14:13:51.229Z,17.9
2019-05-17T14:14:53.871Z,18
2019-05-17T14:15:56.025Z,17.9
2019-05-17T14:16:58.351Z,17.9
2019-05-17T14:18:00.776Z,18
2019-05-17T14:19:03.199Z,17.9
2019-05-17T14:20:05.427Z,17.8
2019-05-17T14:21:07.634Z,18
2019-05-17T14:22:10.061Z,17.9
2019-05-17T14:23:12.202Z,17.9
2019-05-17T14:24:14.419Z,17.9
2019-05-17T14:25:17.642Z,18
2019-05-17T14:26:20.094Z,17.9
2019-05-17T14:27:22.531Z,18
2019-05-17T14:28:25.163Z,17.9
2019-05-17T14:29:27.331Z,17.9
2019-05-17T14:30:29.881Z,18.1
2019-05-17T14:31:31.760Z,18
2019-05-17T14:32:34.113Z,17.9
2019-05-17T14:33:36.544Z,18
2019-05-17T14:34:39.054Z,18
2019-05-17T14:35:41.541Z,17.9
2019-05-17T14:36:43.976Z,17.9
2019-05-17T14:37:46.403Z,18
2019-05-17T14:38:48.853Z,17.9
2019-05-17T14:39:51.304Z,18
2019-05-17T14:41:58.633Z,18
2019-05-17T14:43:00.525Z,17.9
2019-05-17T14:44:02.691Z,17.9
2019-05-17T14:45:05.134Z,17.8
2019-05-17T14:46:07.368Z,17.9
2019-05-17T14:47:09.854Z,17.9
2019-05-17T14:48:12.285Z,18
2019-05-17T14:49:15.031Z,18
2019-05-17T14:50:17.238Z,17.9
2019-05-17T14:51:19.705Z,18
2019-05-17T14:52:22.206Z,17.9
2019-05-17T14:53:24.648Z,17.9
2019-05-17T14:54:27.067Z,18
2019-05-17T14:55:29.489Z,17.9
2019-05-17T14:56:31.924Z,18
2019-05-17T14:57:34.357Z,18.1
2019-05-17T14:58:36.785Z,18
2019-05-17T14:59:39.223Z,17.9
2019-05-17T15:00:41.087Z,17.9
2019-05-17T15:01:43.516Z,18
2019-05-17T15:02:45.671Z,17.9
2019-05-17T15:03:47.824Z,18
2019-05-17T15:04:50.021Z,18
2019-05-17T15:05:53.079Z,18
2019-05-17T15:06:55.506Z,18
2019-05-17T15:07:57.983Z,18
2019-05-17T15:09:00.153Z,17.9
2019-05-17T15:10:02.696Z,18
2019-05-17T15:11:04.845Z,18
2019-05-17T15:12:07.283Z,18
2019-05-17T15:13:09.714Z,17.9
2019-05-17T15:14:12.153Z,17.9
2019-05-17T15:15:14.313Z,18
2019-05-17T15:16:20.743Z,18
2019-05-17T15:17:22.633Z,18